Terminal Aerodrome Forecast
Issued by NWS

Home | Current Version | Previous Version | Text Only | Print | Product List | Glossary On
Versions: 1 2 3 4 5 6 7 8 9 10 11 12 13 14 15 16 17 18 19 20 21 22 23 24 25
000
FTUS46 KSTO 010500 CCA
TAFSCK
TAF COR
KSCK 010541Z 0106/0206 00000KT 4SM BR SKC
     FM011000 00000KT 2SM BR SCT250
      TEMPO 0112/0116 1/4SM FG VV001
     FM011900 VRB04KT 5SM HZ SCT250
     FM012300 VRB03KT P6SM SCT250=

USA.gov is the U.S. government's official web portal to all federal, state and local government web resources and services.